Wolf Island, Missouri
Current Conditions -  °F | °C
As of 12:15 AM on Saturday 20 Dec 2014 (Local Time) from KCIR Reporting Station
Overcast Overcast  
Wind Chill: 37°   Ceiling: 6500
Heat Index: 37°   Visibility: 10mi
Dew Point: 32°   Wind: 0mph
Humidity: 84%   Direction: NA
Pressure: 30.27"   Gusts: NA
Location:  36.74°N, 89.21°W
Report Text: KCIR 200615Z AUTO 00000KT 10SM SCT043 OVC065 03/00 A3027 RMK AO2 T00250001
Loading
Personal Weather Stations






























Interactive Weather Map New forecast layout! Learn more

10-Day Weather Forecast

Advertisements
Track Severe Weather on mobile